createdAt,value
2023-03-26T00:00:29.355Z,100983.22
2023-03-26T00:05:32.618Z,100989.81
2023-03-26T00:10:36.983Z,100981.06
2023-03-26T00:15:41.021Z,100962.19
2023-03-26T00:20:45.766Z,100963.16
2023-03-26T00:25:52.086Z,100977.44
2023-03-26T00:31:03.354Z,100956.63
2023-03-26T00:36:11.229Z,100974.88
2023-03-26T00:41:25.387Z,100975.63
2023-03-26T00:46:31.488Z,100960.59
2023-03-26T00:51:35.360Z,100958.97
2023-03-26T00:56:39.077Z,100967.03
2023-03-26T01:01:42.542Z,100949.78
2023-03-26T01:06:45.639Z,100944.56
2023-03-26T01:11:50.074Z,100937.38
2023-03-26T01:16:55.684Z,100945.72
2023-03-26T01:21:59.262Z,100967.25
2023-03-26T01:27:27.118Z,100965.22
2023-03-26T01:32:44.290Z,100963.41
2023-03-26T01:37:59.657Z,100963.50
2023-03-26T01:43:30.364Z,100939.41
2023-03-26T01:48:42.640Z,100964.56
2023-03-26T01:53:48.010Z,100936.97
2023-03-26T01:59:08.162Z,100952.84
2023-03-26T02:04:43.467Z,100971.56
2023-03-26T02:09:50.614Z,100945.13
2023-03-26T02:14:53.791Z,100939.53
2023-03-26T02:19:57.442Z,100939.03
2023-03-26T02:25:00.562Z,100945.41
2023-03-26T02:30:06.634Z,100947.66
2023-03-26T02:35:13.405Z,100959.22
2023-03-26T02:40:17.834Z,100937.00
2023-03-26T02:45:22.541Z,100933.03
2023-03-26T02:50:57.984Z,100948.78
2023-03-26T02:56:12.920Z,100940.25
2023-03-26T03:01:26.333Z,100947.72
2023-03-26T03:06:31.328Z,100962.88
2023-03-26T03:11:36.232Z,100943.47
2023-03-26T03:16:39.460Z,100911.59
2023-03-26T03:21:45.253Z,100918.00
2023-03-26T03:26:48.647Z,100917.47
2023-03-26T03:32:09.929Z,100922.91
2023-03-26T03:37:20.560Z,100913.41
2023-03-26T03:42:29.735Z,100909.66
2023-03-26T03:47:36.804Z,100902.88
2023-03-26T03:52:40.544Z,100870.19
2023-03-26T03:57:44.222Z,100904.63
2023-03-26T04:02:54.798Z,100905.69
2023-03-26T04:08:01.274Z,100904.84
2023-03-26T04:13:04.503Z,100910.41
2023-03-26T04:18:26.723Z,100875.81
2023-03-26T04:23:34.679Z,100899.41
2023-03-26T04:29:17.309Z,100894.94
2023-03-26T04:34:24.568Z,100882.13
2023-03-26T04:39:47.591Z,100866.16
2023-03-26T04:45:23.124Z,100879.34
2023-03-26T04:50:32.280Z,100883.16
2023-03-26T04:56:01.826Z,100878.50
2023-03-26T05:01:31.169Z,100867.59
2023-03-26T05:06:34.728Z,100872.31
2023-03-26T05:11:45.228Z,100858.09
2023-03-26T05:16:50.673Z,100876.97
2023-03-26T05:21:53.790Z,100859.56
2023-03-26T05:26:56.978Z,100858.25
2023-03-26T05:32:01.400Z,100861.34
2023-03-26T05:37:07.101Z,100866.31
2023-03-26T05:42:27.554Z,100865.44
2023-03-26T05:47:43.357Z,100855.75
2023-03-26T05:52:46.791Z,100852.03
2023-03-26T05:58:08.096Z,100856.50
2023-03-26T06:03:13.197Z,100847.53
2023-03-26T06:08:41.504Z,100844.38
2023-03-26T06:13:44.873Z,100831.06
2023-03-26T06:18:48.032Z,100847.47
2023-03-26T06:24:05.863Z,100835.78
2023-03-26T06:29:24.953Z,100827.66
2023-03-26T06:34:33.686Z,100807.50
2023-03-26T06:39:36.778Z,100812.38
2023-03-26T06:45:02.788Z,100803.94
2023-03-26T06:50:24.028Z,100806.06
2023-03-26T06:55:45.343Z,100785.69
2023-03-26T07:00:57.314Z,100779.84
2023-03-26T07:06:19.025Z,100785.22
2023-03-26T07:11:40.484Z,100777.50
2023-03-26T07:17:06.087Z,100760.66
2023-03-26T07:22:44.651Z,100756.13
2023-03-26T07:28:08.840Z,100756.75
2023-03-26T07:34:14.567Z,100728.28
2023-03-26T07:39:55.282Z,100712.34
2023-03-26T07:45:22.107Z,100717.50
2023-03-26T07:50:44.092Z,100691.59
2023-03-26T07:56:20.709Z,100683.09
2023-03-26T08:02:00.736Z,100672.63
2023-03-26T08:07:42.693Z,100674.56
2023-03-26T08:13:11.442Z,100663.84
2023-03-26T08:18:28.068Z,100661.53
2023-03-26T08:23:58.032Z,100638.28
2023-03-26T08:29:17.958Z,100627.06
2023-03-26T08:34:21.191Z,100644.78
2023-03-26T08:39:24.207Z,100632.81
2023-03-26T08:44:49.205Z,100630.75
2023-03-26T08:50:16.591Z,100629.78
2023-03-26T08:55:36.826Z,100620.28
2023-03-26T09:01:22.487Z,100614.72
2023-03-26T09:06:50.038Z,100621.25
2023-03-26T09:12:02.477Z,100602.78
2023-03-26T09:17:50.930Z,100604.72
2023-03-26T09:23:28.865Z,100605.75
2023-03-26T09:28:53.401Z,100594.69
2023-03-26T09:34:09.881Z,100575.53
2023-03-26T09:39:24.219Z,100574.03
2023-03-26T09:44:27.296Z,100565.50
2023-03-26T09:49:46.883Z,100565.16
2023-03-26T09:55:24.637Z,100556.88
2023-03-26T10:00:54.749Z,100540.84
2023-03-26T10:06:03.111Z,100538.63
2023-03-26T10:11:17.460Z,100545.06
2023-03-26T10:16:37.452Z,100536.50
2023-03-26T10:22:00.157Z,100522.97
2023-03-26T10:27:18.695Z,100522.59
2023-03-26T10:32:45.693Z,100520.16
2023-03-26T10:38:19.219Z,100506.19
2023-03-26T10:44:07.926Z,100511.34
2023-03-26T10:49:33.639Z,100502.50
2023-03-26T10:54:48.836Z,100503.91
2023-03-26T10:59:58.176Z,100474.63
2023-03-26T11:05:06.854Z,100486.00
2023-03-26T11:10:34.076Z,100480.28
2023-03-26T11:15:44.157Z,100481.13
2023-03-26T11:21:19.527Z,100469.19
2023-03-26T11:26:50.847Z,100474.13
2023-03-26T11:32:14.425Z,100441.31
2023-03-26T11:37:30.965Z,100438.47
2023-03-26T11:42:36.857Z,100451.78
2023-03-26T11:47:46.888Z,100420.78
2023-03-26T11:52:50.345Z,100430.38
2023-03-26T11:57:57.718Z,100406.50
2023-03-26T12:03:01.165Z,100409.50
2023-03-26T12:08:22.738Z,100411.31
2023-03-26T12:13:39.526Z,100399.56
2023-03-26T12:18:44.322Z,100381.06
2023-03-26T12:24:05.624Z,100389.13
2023-03-26T12:29:16.927Z,100363.41
2023-03-26T12:34:22.126Z,100376.50
2023-03-26T12:40:06.919Z,100356.19
2023-03-26T12:45:00.346Z,100361.91
2023-03-26T12:50:07.735Z,100347.69
2023-03-26T12:55:30.344Z,100356.19
2023-03-26T13:00:51.676Z,100334.78
2023-03-26T13:06:14.577Z,100345.59
2023-03-26T13:11:37.013Z,100335.84
2023-03-26T13:16:52.680Z,100316.44
2023-03-26T13:22:14.208Z,100333.66
2023-03-26T13:27:40.281Z,100329.28
2023-03-26T13:33:04.559Z,100321.50
2023-03-26T13:38:31.547Z,100294.81
2023-03-26T13:43:43.282Z,100308.59
2023-03-26T13:48:59.235Z,100290.16
2023-03-26T13:54:34.525Z,100287.13
2023-03-26T13:59:47.508Z,100275.19
2023-03-26T14:04:58.136Z,100275.00
2023-03-26T14:10:08.010Z,100270.66
2023-03-26T14:15:39.014Z,100243.78
2023-03-26T14:21:15.780Z,100264.06
2023-03-26T14:26:43.659Z,100263.84
2023-03-26T14:31:52.002Z,100254.00
2023-03-26T14:37:28.460Z,100243.44
2023-03-26T14:43:08.664Z,100234.44
2023-03-26T14:48:23.867Z,100220.56
2023-03-26T14:53:38.329Z,100222.13
2023-03-26T14:59:08.746Z,100200.00
2023-03-26T15:04:14.706Z,100183.09
2023-03-26T15:09:39.788Z,100190.56
2023-03-26T15:14:51.922Z,100184.13
2023-03-26T15:20:36.370Z,100166.34
2023-03-26T15:26:04.124Z,100155.53
2023-03-26T15:31:37.534Z,100144.81
2023-03-26T15:36:53.491Z,100133.66
2023-03-26T15:42:17.510Z,100123.44
2023-03-26T15:47:50.287Z,100093.13
2023-03-26T15:53:09.932Z,100104.84
2023-03-26T15:58:13.421Z,100110.53
2023-03-26T16:03:34.580Z,100100.19
2023-03-26T16:09:17.935Z,100117.06
2023-03-26T16:14:36.293Z,100115.44
2023-03-26T16:19:59.981Z,100111.34
2023-03-26T16:25:27.879Z,100110.06
2023-03-26T16:30:33.223Z,100109.06
2023-03-26T16:35:42.212Z,100099.03
2023-03-26T16:41:06.617Z,100092.03
2023-03-26T16:46:29.964Z,100110.22
2023-03-26T16:51:54.554Z,100112.38
2023-03-26T16:57:09.671Z,100103.78
2023-03-26T17:02:15.428Z,100112.00
2023-03-26T17:07:42.601Z,100122.22
2023-03-26T17:13:00.913Z,100116.91
2023-03-26T17:18:27.005Z,100121.63
2023-03-26T17:23:42.067Z,100112.34
2023-03-26T17:29:06.115Z,100104.78
2023-03-26T17:34:39.647Z,100105.44
2023-03-26T17:39:51.511Z,100103.44
2023-03-26T17:45:01.714Z,100108.13
2023-03-26T17:50:41.830Z,100095.44
2023-03-26T17:55:46.387Z,100081.66
2023-03-26T18:01:04.040Z,100076.09
2023-03-26T18:06:18.469Z,100093.53
2023-03-26T18:11:56.624Z,100079.94
2023-03-26T18:17:01.809Z,100068.31
2023-03-26T18:22:07.673Z,100041.81
2023-03-26T18:27:17.178Z,100048.13
2023-03-26T18:32:22.883Z,100047.16
2023-03-26T18:37:32.057Z,100009.22
2023-03-26T18:42:35.210Z,100018.59
2023-03-26T18:47:38.824Z,100022.09
2023-03-26T18:52:42.230Z,100044.00
2023-03-26T18:57:45.903Z,100038.88
2023-03-26T19:02:52.004Z,100040.66
2023-03-26T19:07:56.386Z,100039.72
2023-03-26T19:13:02.325Z,100031.81
2023-03-26T19:18:14.356Z,100026.81
2023-03-26T19:23:21.497Z,100004.97
2023-03-26T19:28:28.379Z,100012.06
2023-03-26T19:33:38.066Z,100021.47
2023-03-26T19:38:50.355Z,99997.91
2023-03-26T19:43:56.160Z,100001.97
2023-03-26T19:48:59.614Z,99974.44
2023-03-26T19:54:12.227Z,99980.38
2023-03-26T19:59:15.957Z,99990.47
2023-03-26T20:04:18.993Z,99991.13
2023-03-26T20:09:22.234Z,99992.50
2023-03-26T20:14:26.713Z,99973.47
2023-03-26T20:19:29.961Z,99942.47
2023-03-26T20:24:33.394Z,99944.88
2023-03-26T20:29:37.075Z,99931.53
2023-03-26T20:34:40.269Z,99934.19
2023-03-26T20:39:43.353Z,99943.69
2023-03-26T20:44:46.537Z,99924.91
2023-03-26T20:49:49.603Z,99911.25
2023-03-26T20:54:52.606Z,99929.16
2023-03-26T20:59:56.007Z,99933.28
2023-03-26T21:04:59.064Z,99925.06
2023-03-26T21:10:03.422Z,99925.66
2023-03-26T21:15:10.562Z,99909.56
2023-03-26T21:20:20.587Z,99892.19
2023-03-26T21:26:01.726Z,99914.13
2023-03-26T21:31:06.532Z,99891.00
2023-03-26T21:36:11.096Z,99882.25
2023-03-26T21:41:24.845Z,99901.78
2023-03-26T21:46:28.178Z,99860.94
2023-03-26T21:51:32.374Z,99879.00
2023-03-26T21:56:45.836Z,99895.59
2023-03-26T22:02:07.997Z,99881.75
2023-03-26T22:07:16.164Z,99894.91
2023-03-26T22:12:19.229Z,99882.75
2023-03-26T22:17:23.300Z,99860.03
2023-03-26T22:22:26.584Z,99870.44
2023-03-26T22:27:29.594Z,99870.44
2023-03-26T22:32:34.822Z,99851.63
2023-03-26T22:37:38.095Z,99870.50
2023-03-26T22:42:41.989Z,99885.09
2023-03-26T22:47:45.217Z,99883.03
2023-03-26T22:52:48.343Z,99882.41
2023-03-26T22:57:52.686Z,99909.09
2023-03-26T23:03:00.954Z,99905.63
2023-03-26T23:08:04.341Z,99877.31
2023-03-26T23:13:07.806Z,99880.06
2023-03-26T23:18:12.118Z,99908.25
2023-03-26T23:23:15.170Z,99914.19
2023-03-26T23:28:18.565Z,99893.03
2023-03-26T23:33:23.615Z,99909.69
2023-03-26T23:38:43.382Z,99910.72
2023-03-26T23:43:53.776Z,99876.28
2023-03-26T23:49:00.337Z,99926.53
2023-03-26T23:54:05.389Z,99918.19
2023-03-26T23:59:08.689Z,99896.78
